createdAt,value
2018-12-20T00:07:25.667Z,24.73
2018-12-20T00:12:29.178Z,26.17
2018-12-20T00:17:38.065Z,27.87
2018-12-20T00:22:41.745Z,28.07
2018-12-20T00:27:45.466Z,25.77
2018-12-20T00:32:49.122Z,25.63
2018-12-20T00:37:52.925Z,27.67
2018-12-20T00:42:56.533Z,26.50
2018-12-20T00:48:00.099Z,26.47
2018-12-20T00:53:04.586Z,29.90
2018-12-20T00:58:09.303Z,33.73
2018-12-20T01:03:12.872Z,28.07
2018-12-20T01:08:16.405Z,28.43
2018-12-20T01:13:20.106Z,30.67
2018-12-20T01:18:23.968Z,28.73
2018-12-20T01:23:27.588Z,33.07
2018-12-20T01:28:31.317Z,27.27
2018-12-20T01:33:35.232Z,28.07
2018-12-20T01:38:38.932Z,27.30
2018-12-20T01:43:43.657Z,30.23
2018-12-20T01:48:47.146Z,29.60
2018-12-20T01:53:50.840Z,31.40
2018-12-20T01:58:54.330Z,29.33
2018-12-20T02:03:58.041Z,32.80
2018-12-20T02:09:01.988Z,37.23
2018-12-20T02:14:06.773Z,33.37
2018-12-20T02:19:10.507Z,31.40
2018-12-20T02:24:14.010Z,35.07
2018-12-20T02:29:17.872Z,37.27
2018-12-20T02:34:21.606Z,38.10
2018-12-20T02:39:25.355Z,36.77
2018-12-20T02:44:29.747Z,40.67
2018-12-20T02:49:33.513Z,41.53
2018-12-20T02:54:37.343Z,36.77
2018-12-20T02:59:40.937Z,42.20
2018-12-20T03:04:44.558Z,39.83
2018-12-20T03:09:48.169Z,39.57
2018-12-20T03:14:51.910Z,38.50
2018-12-20T03:19:56.597Z,42.33
2018-12-20T03:25:00.359Z,44.10
2018-12-20T03:30:05.470Z,41.97
2018-12-20T03:35:09.450Z,46.20
2018-12-20T03:40:13.209Z,44.20
2018-12-20T03:45:17.108Z,41.73
2018-12-20T03:50:20.835Z,42.50
2018-12-20T03:55:24.600Z,46.23
2018-12-20T04:00:28.272Z,45.43
2018-12-20T04:05:32.057Z,48.77
2018-12-20T04:10:38.777Z,45.10
2018-12-20T04:15:42.659Z,47.97
2018-12-20T04:20:46.259Z,48.50
2018-12-20T04:25:50.199Z,53.07
2018-12-20T04:30:53.732Z,44.10
2018-12-20T04:35:57.504Z,48.43
2018-12-20T04:41:01.230Z,45.97
2018-12-20T04:46:05.108Z,47.20
2018-12-20T04:51:09.850Z,47.93
2018-12-20T04:56:13.346Z,47.83
2018-12-20T05:01:16.964Z,49.03
2018-12-20T05:06:20.788Z,45.17
2018-12-20T05:11:24.361Z,44.27
2018-12-20T05:16:28.279Z,44.83
2018-12-20T05:21:31.821Z,47.17
2018-12-20T05:26:35.276Z,48.60
2018-12-20T05:31:38.777Z,47.63
2018-12-20T05:36:42.164Z,51.13
2018-12-20T05:41:45.741Z,48.70
2018-12-20T05:46:49.303Z,54.37
2018-12-20T05:51:59.612Z,46.30
2018-12-20T05:57:03.715Z,53.37
2018-12-20T06:02:07.178Z,50.13
2018-12-20T06:07:11.743Z,50.33
2018-12-20T06:12:15.228Z,52.77
2018-12-20T06:17:19.017Z,50.67
2018-12-20T06:22:22.702Z,50.53
2018-12-20T06:27:26.335Z,57.73
2018-12-20T06:32:29.917Z,52.87
2018-12-20T06:37:33.455Z,54.20
2018-12-20T06:42:36.971Z,56.50
2018-12-20T06:47:43.439Z,50.20
2018-12-20T06:52:46.999Z,57.30
2018-12-20T06:57:50.446Z,55.27
2018-12-20T07:02:53.934Z,52.60
2018-12-20T07:07:57.626Z,62.73
2018-12-20T07:13:01.227Z,56.60
2018-12-20T07:18:04.989Z,56.47
2018-12-20T07:23:55.137Z,57.07
2018-12-20T07:27:16.002Z,59.47
2018-12-20T07:29:44.551Z,60.60
2018-12-20T07:34:51.334Z,59.33
2018-12-20T07:37:19.936Z,63.50
2018-12-20T07:39:48.839Z,63.37
2018-12-20T07:42:17.443Z,58.33
2018-12-20T07:47:26.210Z,60.93
2018-12-20T07:50:35.883Z,65.77
2018-12-20T07:53:04.571Z,60.17
2018-12-20T07:55:33.081Z,59.00
2018-12-20T08:00:40.177Z,60.10
2018-12-20T08:03:08.663Z,72.37
2018-12-20T08:05:37.315Z,64.63
2018-12-20T08:08:06.030Z,62.73
2018-12-20T08:10:34.666Z,59.13
2018-12-20T08:13:04.328Z,65.33
2018-12-20T08:15:32.927Z,59.07
2018-12-20T08:18:01.724Z,60.13
2018-12-20T08:20:30.278Z,75.37
2018-12-20T08:22:58.720Z,68.13
2018-12-20T08:25:27.083Z,61.00
2018-12-20T08:27:55.653Z,61.73
2018-12-20T08:30:24.298Z,58.90
2018-12-20T08:32:52.923Z,60.20
2018-12-20T08:35:21.730Z,59.37
2018-12-20T08:37:50.162Z,62.03
2018-12-20T08:40:18.665Z,56.10
2018-12-20T08:42:47.225Z,62.73
2018-12-20T08:45:15.701Z,57.03
2018-12-20T08:47:44.597Z,58.83
2018-12-20T08:50:13.182Z,56.00
2018-12-20T08:52:41.718Z,60.77
2018-12-20T08:55:10.334Z,58.37
2018-12-20T08:57:39.242Z,55.67
2018-12-20T09:00:09.031Z,59.13
2018-12-20T09:02:38.341Z,58.97
2018-12-20T09:05:07.122Z,59.57
2018-12-20T09:07:35.580Z,54.07
2018-12-20T09:10:04.656Z,56.40
2018-12-20T09:12:33.165Z,52.23
2018-12-20T09:15:01.716Z,55.10
2018-12-20T09:17:30.258Z,57.03
2018-12-20T09:19:58.763Z,56.83
2018-12-20T09:22:27.315Z,61.23
2018-12-20T09:24:55.811Z,56.37
2018-12-20T09:27:24.332Z,57.80
2018-12-20T09:29:52.904Z,57.03
2018-12-20T09:32:21.424Z,57.57
2018-12-20T09:34:50.012Z,56.93
2018-12-20T09:37:19.086Z,53.47
2018-12-20T09:39:47.532Z,48.60
2018-12-20T09:42:16.089Z,51.33
2018-12-20T09:44:44.550Z,53.10
2018-12-20T09:47:18.664Z,55.00
2018-12-20T09:49:47.133Z,60.20
2018-12-20T09:52:15.787Z,63.67
2018-12-20T09:54:44.308Z,59.97
2018-12-20T09:57:12.874Z,57.20
2018-12-20T09:59:41.560Z,54.57
2018-12-20T10:02:10.162Z,53.47
2018-12-20T10:04:39.076Z,56.93
2018-12-20T10:07:07.528Z,55.17
2018-12-20T10:09:36.202Z,53.00
2018-12-20T10:12:05.193Z,57.60
2018-12-20T10:14:34.814Z,56.33
2018-12-20T10:17:03.671Z,54.03
2018-12-20T10:19:32.578Z,50.43
2018-12-20T10:22:01.088Z,49.60
2018-12-20T10:24:29.704Z,52.17
2018-12-20T10:26:58.232Z,53.10
2018-12-20T10:29:27.726Z,52.37
2018-12-20T10:31:56.947Z,55.80
2018-12-20T10:34:25.572Z,56.53
2018-12-20T10:36:54.230Z,55.67
2018-12-20T10:39:22.758Z,61.20
2018-12-20T10:41:51.246Z,53.97
2018-12-20T10:44:20.285Z,57.00
2018-12-20T10:46:48.785Z,56.20
2018-12-20T10:49:17.334Z,59.63
2018-12-20T10:54:25.567Z,56.37
2018-12-20T10:56:54.249Z,55.63
2018-12-20T10:59:22.737Z,55.03
2018-12-20T11:01:57.469Z,53.83
2018-12-20T11:04:27.532Z,54.90
2018-12-20T11:07:01.814Z,54.90
2018-12-20T11:09:35.821Z,52.77
2018-12-20T11:12:08.569Z,51.70
2018-12-20T11:14:37.594Z,54.33
2018-12-20T11:17:06.007Z,49.00
2018-12-20T11:19:34.596Z,51.33
2018-12-20T11:22:03.283Z,53.03
2018-12-20T11:24:32.393Z,53.27
2018-12-20T11:27:02.411Z,49.97
2018-12-20T11:29:32.247Z,56.00
2018-12-20T11:32:01.075Z,50.07
2018-12-20T11:34:29.788Z,48.00
2018-12-20T11:36:58.428Z,51.00
2018-12-20T11:39:27.206Z,51.67
2018-12-20T11:41:55.854Z,50.33
2018-12-20T11:44:24.412Z,48.10
2018-12-20T11:46:52.882Z,55.97
2018-12-20T11:49:24.357Z,51.47
2018-12-20T11:51:52.899Z,53.87
2018-12-20T11:54:21.658Z,55.70
2018-12-20T11:56:50.267Z,50.60
2018-12-20T11:59:18.751Z,54.57
2018-12-20T12:01:47.384Z,50.67
2018-12-20T12:04:15.781Z,52.73
2018-12-20T12:06:44.242Z,52.57
2018-12-20T12:09:12.716Z,52.53
2018-12-20T12:11:41.306Z,56.10
2018-12-20T12:14:09.856Z,56.10
2018-12-20T12:16:38.405Z,56.33
2018-12-20T12:21:45.272Z,55.20
2018-12-20T12:24:13.857Z,56.73
2018-12-20T12:26:42.697Z,53.80
2018-12-20T12:29:11.306Z,58.17
2018-12-20T12:31:39.756Z,50.67
2018-12-20T12:34:08.279Z,53.43
2018-12-20T12:36:36.767Z,51.97
2018-12-20T12:39:07.909Z,52.67
2018-12-20T12:41:37.031Z,49.87
2018-12-20T12:44:05.738Z,51.23
2018-12-20T12:46:34.372Z,49.30
2018-12-20T12:49:02.819Z,53.43
2018-12-20T12:51:31.327Z,58.40
2018-12-20T12:53:59.648Z,51.83
2018-12-20T12:56:28.074Z,48.57
2018-12-20T12:58:56.521Z,57.37
2018-12-20T13:01:24.966Z,50.70
2018-12-20T13:03:53.507Z,48.90
2018-12-20T13:06:22.168Z,45.10
2018-12-20T13:08:50.634Z,48.33
2018-12-20T13:11:19.113Z,48.50
2018-12-20T13:13:47.918Z,46.37
2018-12-20T13:16:16.319Z,45.57
2018-12-20T13:18:45.720Z,43.30
2018-12-20T13:21:14.539Z,42.60
2018-12-20T13:23:43.406Z,44.90
2018-12-20T13:26:11.835Z,42.30
2018-12-20T13:28:40.376Z,35.90
2018-12-20T13:31:08.928Z,38.13
2018-12-20T13:33:37.690Z,36.17
2018-12-20T13:36:07.649Z,37.10
2018-12-20T13:38:36.460Z,32.33
2018-12-20T13:41:05.146Z,36.33
2018-12-20T13:43:33.821Z,37.90
2018-12-20T13:46:02.463Z,37.93
2018-12-20T13:48:30.906Z,37.30
2018-12-20T13:50:59.467Z,40.50
2018-12-20T13:53:28.439Z,38.77
2018-12-20T13:55:57.498Z,35.47
2018-12-20T13:58:26.077Z,38.00
2018-12-20T14:00:54.727Z,36.17
2018-12-20T14:03:23.470Z,39.67
2018-12-20T14:05:52.016Z,38.13
2018-12-20T14:08:20.590Z,35.03
2018-12-20T14:10:51.135Z,38.17
2018-12-20T14:13:20.203Z,35.57
2018-12-20T14:18:31.125Z,39.87
2018-12-20T14:21:01.755Z,38.83
2018-12-20T14:23:32.553Z,37.10
2018-12-20T14:26:03.520Z,34.33
2018-12-20T14:28:33.501Z,37.20
2018-12-20T14:31:03.364Z,36.20
2018-12-20T14:33:34.179Z,35.17
2018-12-20T14:36:05.198Z,30.97
2018-12-20T14:38:35.135Z,35.57
2018-12-20T14:41:05.409Z,34.27
2018-12-20T14:43:35.025Z,35.70
2018-12-20T14:46:08.668Z,31.27
2018-12-20T14:48:41.181Z,37.90
2018-12-20T14:51:10.833Z,32.07
2018-12-20T14:53:41.929Z,39.43
2018-12-20T14:56:13.957Z,39.07
2018-12-20T14:58:45.102Z,37.60
2018-12-20T15:01:14.932Z,42.90
2018-12-20T15:03:44.728Z,36.80
2018-12-20T15:06:15.919Z,36.33
2018-12-20T15:08:45.194Z,40.40
2018-12-20T15:11:15.813Z,38.80
2018-12-20T15:13:47.058Z,39.90
2018-12-20T15:16:16.848Z,37.43
2018-12-20T15:18:47.832Z,36.20
2018-12-20T15:21:20.669Z,36.13
2018-12-20T15:23:50.858Z,34.37
2018-12-20T15:26:21.039Z,36.20
2018-12-20T15:28:52.343Z,39.83
2018-12-20T15:31:22.923Z,41.10
2018-12-20T15:33:53.171Z,36.37
2018-12-20T15:36:22.313Z,43.43
2018-12-20T15:38:51.811Z,39.23
2018-12-20T15:41:21.841Z,38.27
2018-12-20T15:43:51.987Z,35.10
2018-12-20T15:46:23.924Z,34.03
2018-12-20T15:48:58.578Z,37.83
2018-12-20T15:51:28.594Z,37.47
2018-12-20T15:53:59.299Z,36.13
2018-12-20T15:56:30.437Z,36.27
2018-12-20T15:58:59.761Z,38.80
2018-12-20T16:01:30.651Z,37.33
2018-12-20T16:03:59.926Z,31.73
2018-12-20T16:06:29.043Z,32.03
2018-12-20T16:08:58.869Z,30.47
2018-12-20T16:11:29.210Z,32.47
2018-12-20T16:13:59.525Z,36.07
2018-12-20T16:16:28.095Z,30.80
2018-12-20T16:19:04.677Z,35.17
2018-12-20T16:21:28.024Z,29.33
2018-12-20T16:23:56.507Z,31.07
2018-12-20T16:26:25.369Z,30.90
2018-12-20T16:28:53.920Z,33.33
2018-12-20T16:31:22.972Z,34.17
2018-12-20T16:33:52.079Z,28.23
2018-12-20T16:36:20.506Z,29.53
2018-12-20T16:38:49.074Z,29.80
2018-12-20T16:41:17.662Z,31.77
2018-12-20T16:43:46.203Z,29.53
2018-12-20T16:46:14.760Z,31.73
2018-12-20T16:48:43.274Z,28.90
2018-12-20T16:51:11.723Z,29.67
2018-12-20T16:53:40.195Z,28.73
2018-12-20T16:56:10.336Z,29.30
2018-12-20T16:58:38.876Z,35.60
2018-12-20T17:01:07.348Z,33.03
2018-12-20T17:03:35.907Z,29.73
2018-12-20T17:06:04.484Z,31.37
2018-12-20T17:08:33.279Z,31.93
2018-12-20T17:11:01.843Z,34.30
2018-12-20T17:13:32.618Z,30.10
2018-12-20T17:16:01.135Z,33.27
2018-12-20T17:18:29.693Z,31.43
2018-12-20T17:21:00.200Z,27.90
2018-12-20T17:23:35.539Z,33.13
2018-12-20T17:26:03.707Z,32.10
2018-12-20T17:28:33.242Z,27.93
2018-12-20T17:31:04.707Z,28.20
2018-12-20T17:33:34.628Z,30.37
2018-12-20T17:36:07.652Z,29.43
2018-12-20T17:38:39.931Z,28.97
2018-12-20T17:41:10.825Z,31.07
2018-12-20T17:43:41.162Z,29.47
2018-12-20T17:46:11.061Z,30.73
2018-12-20T17:48:44.405Z,24.87
2018-12-20T17:51:14.244Z,31.20
2018-12-20T17:53:44.129Z,29.67
2018-12-20T17:56:15.741Z,31.63
2018-12-20T17:58:48.845Z,27.43
2018-12-20T18:01:18.725Z,28.63
2018-12-20T18:03:49.346Z,29.10
2018-12-20T18:06:19.695Z,29.33
2018-12-20T18:08:51.251Z,34.87
2018-12-20T18:11:21.375Z,30.53
2018-12-20T18:13:50.718Z,29.37
2018-12-20T18:16:20.932Z,30.97
2018-12-20T18:18:51.874Z,28.17
2018-12-20T18:21:22.865Z,30.93
2018-12-20T18:23:52.320Z,29.53
2018-12-20T18:26:22.132Z,28.90
2018-12-20T18:28:53.152Z,27.23
2018-12-20T18:31:22.664Z,25.07
2018-12-20T18:33:53.635Z,27.23
2018-12-20T18:36:24.963Z,28.70
2018-12-20T18:38:57.244Z,26.93
2018-12-20T18:41:31.760Z,30.70
2018-12-20T18:44:01.930Z,27.37
2018-12-20T18:46:33.369Z,23.77
2018-12-20T18:49:03.896Z,26.03
2018-12-20T18:51:35.369Z,26.47
2018-12-20T18:54:06.310Z,25.27
2018-12-20T18:56:36.667Z,23.37
2018-12-20T18:59:07.320Z,25.53
2018-12-20T19:01:37.825Z,27.23
2018-12-20T19:04:08.918Z,31.23
2018-12-20T19:06:41.854Z,22.83
2018-12-20T19:09:13.065Z,23.80
2018-12-20T19:11:43.673Z,23.93
2018-12-20T19:14:16.257Z,21.07
2018-12-20T19:16:46.706Z,23.50
2018-12-20T19:19:19.459Z,26.40
2018-12-20T19:21:50.210Z,21.63
2018-12-20T19:24:22.378Z,22.03
2018-12-20T19:26:56.132Z,22.60
2018-12-20T19:29:28.075Z,25.73
2018-12-20T19:31:59.453Z,25.40
2018-12-20T19:34:31.118Z,20.67
2018-12-20T19:37:01.563Z,20.80
2018-12-20T19:39:32.068Z,21.93
2018-12-20T19:42:06.064Z,22.57
2018-12-20T19:44:35.076Z,25.50
2018-12-20T19:47:06.688Z,22.63
2018-12-20T19:49:38.233Z,24.23
2018-12-20T19:52:09.821Z,23.67
2018-12-20T19:54:47.888Z,21.77
2018-12-20T19:57:13.434Z,19.87
2018-12-20T19:59:42.782Z,24.00
2018-12-20T20:02:11.339Z,24.50
2018-12-20T20:04:40.676Z,21.90
2018-12-20T20:07:10.784Z,21.33
2018-12-20T20:09:39.669Z,25.10
2018-12-20T20:12:08.471Z,19.73
2018-12-20T20:14:38.210Z,22.33
2018-12-20T20:17:12.632Z,22.80
2018-12-20T20:19:42.344Z,20.07
2018-12-20T20:22:11.592Z,21.43
2018-12-20T20:24:42.602Z,20.30
2018-12-20T20:27:12.305Z,21.00
2018-12-20T20:29:41.106Z,20.70
2018-12-20T20:32:09.894Z,20.40
2018-12-20T20:34:39.888Z,13.37
2018-12-20T20:37:08.551Z,16.63
2018-12-20T20:39:39.218Z,15.53
2018-12-20T20:42:10.892Z,13.80
2018-12-20T20:44:42.550Z,15.93
2018-12-20T20:49:53.461Z,15.80
2018-12-20T20:52:22.679Z,14.97
2018-12-20T20:54:53.754Z,16.63
2018-12-20T20:57:24.163Z,16.23
2018-12-20T20:59:53.251Z,18.80
2018-12-20T21:02:22.274Z,16.27
2018-12-20T21:04:52.038Z,19.97
2018-12-20T21:07:20.790Z,20.67
2018-12-20T21:09:50.622Z,18.87
2018-12-20T21:12:22.961Z,20.23
2018-12-20T21:14:52.485Z,19.20
2018-12-20T21:17:21.801Z,23.93
2018-12-20T21:19:50.577Z,23.73
2018-12-20T21:22:21.885Z,21.87
2018-12-20T21:24:52.359Z,24.50
2018-12-20T21:27:22.681Z,26.20
2018-12-20T21:29:57.978Z,26.37
2018-12-20T21:32:26.616Z,27.40
2018-12-20T21:34:55.372Z,27.33
2018-12-20T21:37:24.021Z,28.53
2018-12-20T21:39:52.798Z,27.50
2018-12-20T21:42:21.426Z,28.27
2018-12-20T21:44:49.843Z,33.13
2018-12-20T21:47:18.424Z,26.43
2018-12-20T21:49:46.933Z,32.90
2018-12-20T21:52:15.526Z,31.40
2018-12-20T21:54:44.393Z,30.93
2018-12-20T21:57:13.026Z,31.27
2018-12-20T21:59:41.622Z,32.10
2018-12-20T22:02:10.159Z,29.20
2018-12-20T22:04:38.973Z,27.37
2018-12-20T22:07:07.654Z,28.37
2018-12-20T22:09:36.232Z,29.40
2018-12-20T22:12:04.940Z,26.93
2018-12-20T22:14:33.572Z,28.47
2018-12-20T22:17:02.142Z,32.03
2018-12-20T22:19:30.736Z,27.97
2018-12-20T22:21:59.298Z,29.50
2018-12-20T22:24:27.915Z,31.33
2018-12-20T22:26:56.465Z,25.53
2018-12-20T22:29:25.017Z,24.53
2018-12-20T22:31:53.679Z,27.33
2018-12-20T22:34:22.379Z,25.20
2018-12-20T22:36:50.977Z,28.50
2018-12-20T22:39:19.504Z,29.23
2018-12-20T22:41:48.349Z,29.67
2018-12-20T22:44:16.982Z,30.23
2018-12-20T22:46:45.526Z,29.30
2018-12-20T22:49:14.363Z,27.83
2018-12-20T22:51:42.926Z,31.17
2018-12-20T22:54:11.495Z,31.33
2018-12-20T22:56:40.047Z,32.03
2018-12-20T22:59:08.610Z,32.27
2018-12-20T23:01:37.036Z,34.30
2018-12-20T23:04:05.687Z,35.23
2018-12-20T23:06:34.201Z,33.67
2018-12-20T23:09:04.391Z,33.37
2018-12-20T23:11:32.964Z,34.67
2018-12-20T23:14:01.419Z,36.13
2018-12-20T23:16:30.213Z,38.77
2018-12-20T23:18:58.914Z,35.30
2018-12-20T23:21:27.354Z,36.20
2018-12-20T23:23:55.986Z,37.13
2018-12-20T23:26:24.622Z,41.63
2018-12-20T23:28:53.783Z,35.67
2018-12-20T23:31:22.259Z,38.83
2018-12-20T23:33:50.811Z,35.87
2018-12-20T23:36:19.597Z,36.73
2018-12-20T23:38:48.153Z,33.17
2018-12-20T23:41:16.714Z,33.90
2018-12-20T23:43:45.393Z,34.93
2018-12-20T23:46:14.111Z,31.67
2018-12-20T23:48:42.671Z,31.67
2018-12-20T23:51:13.793Z,33.00
2018-12-20T23:53:41.620Z,33.57
2018-12-20T23:56:10.084Z,33.60
2018-12-20T23:58:38.710Z,35.20
